createdAt,value
2019-05-19T00:01:11.631Z,12.90
2019-05-19T00:03:40.970Z,12.90
2019-05-19T00:06:10.367Z,12.90
2019-05-19T00:08:40.245Z,12.90
2019-05-19T00:11:09.582Z,12.90
2019-05-19T00:13:38.951Z,12.90
2019-05-19T00:16:08.374Z,12.90
2019-05-19T00:18:37.751Z,12.90
2019-05-19T00:21:07.347Z,12.80
2019-05-19T00:26:05.263Z,12.80
2019-05-19T00:28:34.617Z,12.80
2019-05-19T00:31:04.562Z,12.80
2019-05-19T00:33:33.911Z,12.70
2019-05-19T00:36:03.368Z,12.70
2019-05-19T00:38:32.702Z,12.70
2019-05-19T00:41:02.098Z,12.70
2019-05-19T00:43:31.438Z,12.60
2019-05-19T00:46:00.860Z,12.60
2019-05-19T00:48:30.196Z,12.60
2019-05-19T00:50:59.519Z,12.60
2019-05-19T00:53:28.869Z,12.50
2019-05-19T00:55:59.873Z,12.50
2019-05-19T00:58:30.652Z,12.50
2019-05-19T01:01:00.071Z,12.50
2019-05-19T01:03:29.530Z,12.50
2019-05-19T01:05:58.866Z,12.50
2019-05-19T01:08:28.199Z,12.50
2019-05-19T01:10:57.532Z,12.50
2019-05-19T01:13:26.859Z,12.40
2019-05-19T01:15:56.202Z,12.40
2019-05-19T01:18:25.764Z,12.40
2019-05-19T01:20:55.528Z,12.40
2019-05-19T01:23:24.856Z,12.40
2019-05-19T01:25:54.189Z,12.40
2019-05-19T01:28:23.507Z,12.40
2019-05-19T01:30:52.847Z,12.40
2019-05-19T01:33:22.251Z,12.40
2019-05-19T01:35:51.702Z,12.40
2019-05-19T01:38:21.028Z,12.30
2019-05-19T01:40:50.401Z,12.30
2019-05-19T01:43:19.815Z,12.40
2019-05-19T01:45:49.155Z,12.30
2019-05-19T01:48:18.490Z,12.40
2019-05-19T01:50:47.816Z,12.30
2019-05-19T01:53:17.422Z,12.40
2019-05-19T01:55:46.817Z,12.40
2019-05-19T01:58:16.191Z,12.40
2019-05-19T02:00:45.615Z,12.40
2019-05-19T02:03:15.360Z,12.40
2019-05-19T02:05:44.938Z,12.40
2019-05-19T02:08:14.338Z,12.40
2019-05-19T02:10:43.685Z,12.40
2019-05-19T02:13:13.024Z,12.40
2019-05-19T02:15:42.365Z,12.40
2019-05-19T02:18:11.695Z,12.40
2019-05-19T02:20:41.025Z,12.40
2019-05-19T02:23:10.365Z,12.40
2019-05-19T02:25:40.161Z,12.40
2019-05-19T02:28:09.551Z,12.40
2019-05-19T02:30:39.163Z,12.30
2019-05-19T02:33:08.508Z,12.30
2019-05-19T02:35:37.842Z,12.30
2019-05-19T02:38:07.191Z,12.30
2019-05-19T02:40:39.504Z,12.30
2019-05-19T02:43:10.621Z,12.30
2019-05-19T02:45:40.529Z,12.30
2019-05-19T02:48:10.561Z,12.30
2019-05-19T02:50:51.701Z,12.30
2019-05-19T02:53:13.052Z,12.30
2019-05-19T02:55:42.853Z,12.30
2019-05-19T02:58:13.383Z,12.40
2019-05-19T03:00:43.800Z,12.40
2019-05-19T03:03:13.216Z,12.40
2019-05-19T03:05:42.613Z,12.30
2019-05-19T03:08:12.020Z,12.30
2019-05-19T03:10:41.360Z,12.30
2019-05-19T03:13:10.999Z,12.40
2019-05-19T03:15:40.331Z,12.40
2019-05-19T03:18:09.729Z,12.40
2019-05-19T03:20:39.076Z,12.30
2019-05-19T03:23:08.469Z,12.30
2019-05-19T03:25:38.116Z,12.40
2019-05-19T03:28:07.455Z,12.40
2019-05-19T03:30:54.504Z,12.40
2019-05-19T03:33:27.383Z,12.40
2019-05-19T03:35:56.818Z,12.40
2019-05-19T03:38:26.228Z,12.40
2019-05-19T03:40:55.626Z,12.40
2019-05-19T03:43:25.123Z,12.30
2019-05-19T03:45:54.439Z,12.40
2019-05-19T03:48:23.773Z,12.30
2019-05-19T03:50:53.159Z,12.40
2019-05-19T03:53:22.483Z,12.40
2019-05-19T03:55:51.816Z,12.40
2019-05-19T03:58:21.233Z,12.40
2019-05-19T04:00:50.564Z,12.40
2019-05-19T04:03:19.972Z,12.40
2019-05-19T04:05:49.592Z,12.40
2019-05-19T04:08:18.908Z,12.40
2019-05-19T04:10:48.306Z,12.50
2019-05-19T04:13:17.709Z,12.50
2019-05-19T04:15:47.030Z,12.50
2019-05-19T04:18:16.363Z,12.50
2019-05-19T04:20:45.784Z,12.60
2019-05-19T04:23:15.099Z,12.60
2019-05-19T04:25:44.424Z,12.60
2019-05-19T04:28:13.743Z,12.60
2019-05-19T04:30:43.083Z,12.70
2019-05-19T04:33:12.417Z,12.70
2019-05-19T04:35:41.892Z,12.80
2019-05-19T04:38:11.311Z,12.80
2019-05-19T04:40:40.747Z,12.70
2019-05-19T04:43:10.122Z,12.80
2019-05-19T04:45:39.526Z,12.80
2019-05-19T04:48:09.797Z,12.90
2019-05-19T04:50:39.338Z,12.90
2019-05-19T04:53:08.714Z,12.90
2019-05-19T04:55:38.032Z,13.00
2019-05-19T04:58:07.378Z,13.10
2019-05-19T05:00:36.712Z,13.10
2019-05-19T05:03:06.118Z,13.10
2019-05-19T05:05:35.582Z,13.20
2019-05-19T05:08:04.926Z,13.20
2019-05-19T05:10:34.360Z,13.30
2019-05-19T05:13:03.701Z,13.40
2019-05-19T05:15:33.143Z,13.40
2019-05-19T05:18:02.502Z,13.50
2019-05-19T05:20:31.921Z,13.50
2019-05-19T05:23:02.018Z,13.40
2019-05-19T05:25:31.509Z,13.50
2019-05-19T05:28:01.074Z,13.50
2019-05-19T05:30:30.413Z,13.40
2019-05-19T05:32:59.750Z,13.40
2019-05-19T05:35:29.177Z,13.40
2019-05-19T05:37:58.512Z,13.30
2019-05-19T05:40:27.847Z,13.30
2019-05-19T05:42:57.278Z,13.40
2019-05-19T05:45:26.657Z,13.30
2019-05-19T05:47:56.294Z,13.30
2019-05-19T05:50:25.629Z,13.30
2019-05-19T05:52:54.975Z,13.20
2019-05-19T05:55:24.354Z,13.10
2019-05-19T05:57:54.082Z,13.20
2019-05-19T06:00:24.891Z,13.20
2019-05-19T06:02:54.231Z,13.20
2019-05-19T06:05:24.058Z,13.20
2019-05-19T06:07:53.391Z,13.20
2019-05-19T06:10:23.401Z,13.40
2019-05-19T06:12:52.846Z,13.40
2019-05-19T06:15:22.539Z,13.50
2019-05-19T06:17:51.875Z,13.50
2019-05-19T06:20:21.319Z,13.60
2019-05-19T06:22:56.361Z,13.60
2019-05-19T06:25:21.881Z,13.70
2019-05-19T06:27:51.402Z,13.70
2019-05-19T06:30:20.725Z,13.70
2019-05-19T06:32:52.321Z,13.80
2019-05-19T06:35:21.717Z,13.80
2019-05-19T06:37:51.107Z,13.80
2019-05-19T06:40:20.499Z,14.00
2019-05-19T06:42:49.838Z,14.10
2019-05-19T06:45:19.282Z,14.10
2019-05-19T06:47:48.850Z,14.30
2019-05-19T06:50:18.483Z,14.50
2019-05-19T06:52:47.932Z,14.50
2019-05-19T06:55:17.916Z,14.50
2019-05-19T06:57:47.485Z,14.60
2019-05-19T07:00:17.263Z,14.70
2019-05-19T07:02:46.603Z,14.80
2019-05-19T07:05:16.147Z,14.70
2019-05-19T07:07:45.472Z,14.80
2019-05-19T07:10:14.923Z,14.80
2019-05-19T07:12:44.323Z,14.80
2019-05-19T07:17:43.411Z,14.90
2019-05-19T07:20:12.743Z,14.90
2019-05-19T07:22:42.164Z,15.00
2019-05-19T07:25:12.046Z,15.10
2019-05-19T07:27:41.551Z,15.10
2019-05-19T07:30:11.085Z,15.10
2019-05-19T07:32:40.570Z,15.10
2019-05-19T07:35:09.923Z,15.20
2019-05-19T07:37:39.291Z,15.10
2019-05-19T07:40:09.622Z,15.20
2019-05-19T07:42:38.962Z,15.30
2019-05-19T07:45:08.671Z,15.30
2019-05-19T07:47:38.092Z,15.20
2019-05-19T07:50:07.420Z,15.30
2019-05-19T07:52:37.087Z,15.30
2019-05-19T07:55:07.220Z,15.20
2019-05-19T07:57:36.575Z,15.20
2019-05-19T08:00:06.997Z,15.40
2019-05-19T08:02:36.515Z,15.40
2019-05-19T08:05:06.397Z,15.40
2019-05-19T08:07:35.846Z,15.40
2019-05-19T08:10:05.758Z,15.50
2019-05-19T08:12:35.176Z,15.80
2019-05-19T08:15:04.895Z,15.80
2019-05-19T08:17:34.315Z,15.80
2019-05-19T08:20:04.347Z,15.80
2019-05-19T08:22:33.759Z,15.90
2019-05-19T08:25:03.167Z,16.00
2019-05-19T08:27:32.551Z,16.00
2019-05-19T08:30:01.892Z,15.90
2019-05-19T08:32:31.241Z,16.00
2019-05-19T08:35:00.655Z,16.10
2019-05-19T08:37:30.034Z,16.30
2019-05-19T08:39:59.392Z,16.40
2019-05-19T08:42:28.830Z,16.50
2019-05-19T08:44:58.155Z,16.80
2019-05-19T08:47:27.815Z,16.90
2019-05-19T08:49:57.138Z,17.00
2019-05-19T08:52:26.519Z,17.00
2019-05-19T08:54:56.186Z,17.10
2019-05-19T08:57:25.629Z,17.10
2019-05-19T08:59:55.062Z,17.10
2019-05-19T09:02:24.684Z,16.80
2019-05-19T09:04:54.071Z,16.80
2019-05-19T09:07:23.535Z,17.00
2019-05-19T09:09:52.881Z,16.80
2019-05-19T09:12:22.311Z,16.70
2019-05-19T09:14:51.814Z,16.80
2019-05-19T09:17:21.270Z,16.80
2019-05-19T09:19:50.654Z,16.80
2019-05-19T09:22:20.287Z,16.90
2019-05-19T09:24:49.761Z,17.00
2019-05-19T09:27:19.093Z,17.00
2019-05-19T09:29:48.730Z,17.00
2019-05-19T09:32:18.092Z,17.00
2019-05-19T09:34:47.610Z,16.90
2019-05-19T09:37:16.954Z,17.00
2019-05-19T09:39:46.339Z,17.00
2019-05-19T09:42:15.662Z,17.10
2019-05-19T09:44:45.026Z,17.20
2019-05-19T09:47:14.357Z,17.20
2019-05-19T09:49:44.031Z,17.20
2019-05-19T09:52:16.957Z,17.20
2019-05-19T09:54:45.742Z,17.30
2019-05-19T09:57:15.408Z,17.40
2019-05-19T09:59:44.999Z,17.50
2019-05-19T10:02:14.641Z,17.60
2019-05-19T10:04:44.072Z,17.80
2019-05-19T10:07:13.616Z,17.80
2019-05-19T10:10:02.909Z,17.90
2019-05-19T10:12:32.740Z,17.90
2019-05-19T10:15:02.820Z,17.90
2019-05-19T10:17:32.494Z,18.10
2019-05-19T10:20:02.188Z,18.10
2019-05-19T10:22:31.813Z,18.00
2019-05-19T10:25:20.579Z,17.90
2019-05-19T10:27:33.269Z,18.00
2019-05-19T10:30:02.681Z,17.90
2019-05-19T10:32:32.028Z,17.90
2019-05-19T10:35:01.479Z,17.80
2019-05-19T10:37:30.904Z,17.80
2019-05-19T10:40:00.246Z,17.80
2019-05-19T10:42:29.648Z,17.80
2019-05-19T10:44:58.991Z,17.80
2019-05-19T10:47:28.407Z,17.70
2019-05-19T10:49:57.734Z,17.80
2019-05-19T10:52:27.124Z,18.00
2019-05-19T10:54:56.575Z,18.10
2019-05-19T10:57:25.991Z,18.00
2019-05-19T10:59:55.334Z,18.10
2019-05-19T11:02:24.696Z,18.10
2019-05-19T11:04:54.082Z,18.10
2019-05-19T11:07:23.735Z,18.10
2019-05-19T11:09:53.387Z,18.10
2019-05-19T11:12:22.711Z,18.20
2019-05-19T11:14:52.053Z,18.20
2019-05-19T11:17:21.407Z,18.20
2019-05-19T11:19:50.803Z,18.20
2019-05-19T11:22:20.202Z,18.30
2019-05-19T11:24:49.610Z,18.30
2019-05-19T11:27:19.276Z,18.30
2019-05-19T11:29:48.623Z,18.30
2019-05-19T11:32:17.964Z,18.20
2019-05-19T11:34:47.377Z,18.20
2019-05-19T11:37:16.761Z,18.30
2019-05-19T11:39:46.227Z,18.20
2019-05-19T11:42:15.623Z,18.10
2019-05-19T11:44:44.998Z,18.30
2019-05-19T11:47:14.363Z,18.30
2019-05-19T11:49:43.975Z,18.50
2019-05-19T11:52:13.312Z,18.50
2019-05-19T11:54:42.644Z,18.60
2019-05-19T11:57:12.095Z,18.70
2019-05-19T11:59:41.442Z,18.80
2019-05-19T12:02:10.780Z,18.80
2019-05-19T12:04:40.153Z,18.70
2019-05-19T12:07:09.545Z,18.50
2019-05-19T12:09:38.894Z,18.50
2019-05-19T12:12:08.375Z,18.70
2019-05-19T12:14:37.739Z,18.80
2019-05-19T12:17:07.163Z,18.90
2019-05-19T12:19:36.613Z,19.00
2019-05-19T12:22:05.962Z,19.30
2019-05-19T12:24:35.327Z,19.40
2019-05-19T12:27:04.674Z,19.70
2019-05-19T12:29:34.092Z,19.90
2019-05-19T12:32:03.779Z,20.10
2019-05-19T12:34:33.113Z,20.20
2019-05-19T12:37:02.517Z,20.40
2019-05-19T12:39:32.502Z,20.60
2019-05-19T12:42:01.834Z,20.50
2019-05-19T12:44:31.251Z,20.40
2019-05-19T12:47:00.735Z,20.70
2019-05-19T12:49:30.083Z,20.80
2019-05-19T12:51:59.460Z,20.70
2019-05-19T12:54:28.854Z,20.70
2019-05-19T12:56:58.289Z,20.40
2019-05-19T12:59:27.893Z,20.20
2019-05-19T13:01:57.432Z,19.90
2019-05-19T13:04:26.775Z,19.50
2019-05-19T13:06:56.111Z,19.40
2019-05-19T13:09:25.601Z,19.30
2019-05-19T13:11:55.006Z,19.20
2019-05-19T13:14:24.373Z,19.00
2019-05-19T13:16:54.257Z,19.00
2019-05-19T13:19:23.605Z,18.70
2019-05-19T13:21:53.466Z,18.80
2019-05-19T13:24:22.847Z,18.80
2019-05-19T13:26:56.655Z,18.70
2019-05-19T13:29:23.284Z,18.80
2019-05-19T13:31:52.698Z,18.90
2019-05-19T13:34:22.036Z,19.00
2019-05-19T13:36:51.643Z,19.00
2019-05-19T13:39:21.010Z,19.00
2019-05-19T13:41:50.347Z,19.10
2019-05-19T13:44:19.686Z,19.20
2019-05-19T13:46:49.031Z,19.00
2019-05-19T13:49:18.757Z,19.30
2019-05-19T13:51:48.094Z,19.40
2019-05-19T13:54:17.430Z,19.50
2019-05-19T13:56:46.776Z,19.60
2019-05-19T13:59:16.218Z,19.60
2019-05-19T14:01:45.538Z,19.40
2019-05-19T14:04:14.874Z,19.30
2019-05-19T14:06:44.235Z,19.20
2019-05-19T14:09:15.318Z,19.10
2019-05-19T14:11:45.148Z,19.10
2019-05-19T14:14:14.492Z,19.20
2019-05-19T14:16:43.910Z,19.30
2019-05-19T14:19:13.243Z,19.30
2019-05-19T14:21:42.660Z,19.40
2019-05-19T14:24:12.005Z,19.70
2019-05-19T14:26:41.331Z,19.80
2019-05-19T14:29:10.736Z,19.90
2019-05-19T14:31:40.096Z,20.00
2019-05-19T14:34:09.418Z,20.00
2019-05-19T14:39:07.815Z,19.70
2019-05-19T14:41:41.452Z,19.60
2019-05-19T14:44:10.838Z,19.40
2019-05-19T14:46:40.241Z,19.50
2019-05-19T14:49:09.598Z,19.40
2019-05-19T14:51:38.930Z,19.30
2019-05-19T14:54:08.290Z,19.10
2019-05-19T14:56:37.771Z,19.00
2019-05-19T14:59:07.098Z,18.90
2019-05-19T15:01:36.434Z,18.80
2019-05-19T15:04:05.767Z,18.80
2019-05-19T15:06:35.107Z,18.80
2019-05-19T15:09:05.523Z,18.70
2019-05-19T15:11:34.859Z,18.70
2019-05-19T15:14:04.272Z,18.70
2019-05-19T15:16:33.971Z,18.60
2019-05-19T15:19:03.412Z,18.60
2019-05-19T15:21:32.816Z,18.50
2019-05-19T15:24:02.148Z,18.50
2019-05-19T15:26:31.470Z,18.50
2019-05-19T15:29:00.944Z,18.40
2019-05-19T15:31:30.271Z,18.40
2019-05-19T15:33:59.777Z,18.50
2019-05-19T15:36:29.120Z,18.60
2019-05-19T15:38:58.487Z,18.70
2019-05-19T15:41:27.915Z,18.70
2019-05-19T15:43:57.377Z,18.70
2019-05-19T15:46:26.719Z,18.70
2019-05-19T15:48:56.045Z,18.60
2019-05-19T15:51:28.995Z,18.70
2019-05-19T15:53:56.723Z,18.80
2019-05-19T15:56:26.139Z,18.70
2019-05-19T15:58:55.505Z,18.90
2019-05-19T16:01:24.922Z,18.70
2019-05-19T16:03:54.379Z,18.70
2019-05-19T16:06:23.773Z,18.70
2019-05-19T16:08:53.324Z,18.70
2019-05-19T16:11:22.795Z,18.70
2019-05-19T16:13:52.327Z,18.60
2019-05-19T16:16:22.024Z,18.60
2019-05-19T16:18:53.349Z,18.60
2019-05-19T16:21:22.746Z,18.60
2019-05-19T16:23:52.255Z,18.50
2019-05-19T16:26:21.778Z,18.40
2019-05-19T16:28:51.263Z,18.40
2019-05-19T16:31:20.822Z,18.40
2019-05-19T16:33:50.280Z,18.40
2019-05-19T16:36:19.650Z,18.30
2019-05-19T16:38:49.067Z,18.30
2019-05-19T16:41:18.493Z,18.30
2019-05-19T16:43:48.507Z,18.20
2019-05-19T16:46:17.832Z,18.20
2019-05-19T16:48:47.171Z,18.20
2019-05-19T16:51:16.508Z,18.20
2019-05-19T16:53:47.667Z,18.20
2019-05-19T16:56:17.051Z,18.20
2019-05-19T16:58:46.634Z,18.20
2019-05-19T17:01:16.047Z,18.10
2019-05-19T17:03:45.459Z,18.00
2019-05-19T17:06:14.799Z,18.00
2019-05-19T17:08:44.128Z,18.00
2019-05-19T17:11:18.339Z,18.00
2019-05-19T17:13:44.634Z,17.90
2019-05-19T17:16:13.997Z,17.90
2019-05-19T17:18:43.651Z,17.90
2019-05-19T17:21:13.081Z,17.90
2019-05-19T17:23:42.478Z,17.80
2019-05-19T17:26:11.950Z,17.80
2019-05-19T17:28:41.275Z,17.80
2019-05-19T17:31:10.623Z,17.80
2019-05-19T17:33:40.026Z,17.80
2019-05-19T17:36:09.433Z,17.70
2019-05-19T17:38:38.975Z,17.60
2019-05-19T17:41:08.395Z,17.60
2019-05-19T17:43:37.733Z,17.50
2019-05-19T17:46:07.090Z,17.40
2019-05-19T17:48:36.435Z,17.40
2019-05-19T17:51:05.939Z,17.30
2019-05-19T17:53:35.278Z,17.20
2019-05-19T17:56:05.183Z,17.20
2019-05-19T17:58:35.603Z,17.20
2019-05-19T18:01:04.995Z,17.20
2019-05-19T18:03:34.651Z,17.10
2019-05-19T18:06:04.023Z,17.10
2019-05-19T18:08:33.346Z,17.10
2019-05-19T18:11:02.679Z,17.10
2019-05-19T18:13:32.093Z,17.10
2019-05-19T18:18:30.142Z,16.90
2019-05-19T18:20:59.534Z,16.90
2019-05-19T18:23:28.951Z,16.90
2019-05-19T18:25:58.411Z,16.80
2019-05-19T18:28:27.776Z,16.80
2019-05-19T18:30:57.170Z,16.70
2019-05-19T18:33:26.614Z,16.70
2019-05-19T18:35:56.007Z,16.70
2019-05-19T18:38:25.350Z,16.70
2019-05-19T18:40:54.702Z,16.60
2019-05-19T18:43:24.055Z,16.50
2019-05-19T18:45:53.496Z,16.50
2019-05-19T18:48:23.394Z,16.40
2019-05-19T18:50:53.006Z,16.30
2019-05-19T18:53:22.468Z,16.30
2019-05-19T18:55:51.895Z,16.20
2019-05-19T18:58:21.230Z,16.30
2019-05-19T19:00:52.067Z,16.20
2019-05-19T19:03:21.888Z,16.20
2019-05-19T19:05:51.535Z,16.10
2019-05-19T19:08:20.877Z,16.10
2019-05-19T19:10:50.272Z,16.00
2019-05-19T19:13:19.617Z,16.00
2019-05-19T19:15:49.203Z,15.90
2019-05-19T19:18:18.631Z,15.90
2019-05-19T19:20:48.041Z,15.90
2019-05-19T19:23:17.664Z,15.90
2019-05-19T19:25:47.003Z,15.80
2019-05-19T19:28:16.337Z,15.80
2019-05-19T19:33:14.282Z,15.80
2019-05-19T19:35:43.895Z,15.70
2019-05-19T19:38:13.487Z,15.70
2019-05-19T19:40:42.880Z,15.70
2019-05-19T19:43:12.518Z,15.70
2019-05-19T19:45:41.954Z,15.70
2019-05-19T19:48:11.370Z,15.60
2019-05-19T19:50:40.786Z,15.60
2019-05-19T19:53:10.192Z,15.50
2019-05-19T19:55:39.529Z,15.50
2019-05-19T19:58:09.039Z,15.50
2019-05-19T20:00:45.239Z,15.50
2019-05-19T20:03:14.875Z,15.50
2019-05-19T20:05:45.199Z,15.50
2019-05-19T20:08:14.671Z,15.50
2019-05-19T20:10:44.132Z,15.40
2019-05-19T20:13:13.471Z,15.40
2019-05-19T20:15:42.803Z,15.30
2019-05-19T20:18:12.130Z,15.30
2019-05-19T20:20:41.547Z,15.30
2019-05-19T20:23:10.998Z,15.20
2019-05-19T20:25:40.333Z,15.20
2019-05-19T20:28:09.720Z,15.20
2019-05-19T20:30:39.157Z,15.20
2019-05-19T20:33:08.570Z,15.10
2019-05-19T20:35:37.903Z,15.10
2019-05-19T20:38:07.315Z,15.00
2019-05-19T20:40:36.660Z,15.00
2019-05-19T20:43:06.087Z,15.00
2019-05-19T20:45:35.837Z,15.00
2019-05-19T20:48:05.280Z,14.90
2019-05-19T20:50:34.720Z,14.90
2019-05-19T20:53:04.066Z,14.80
2019-05-19T20:55:33.478Z,14.80
2019-05-19T20:58:02.906Z,14.80
2019-05-19T21:00:32.284Z,14.70
2019-05-19T21:03:01.690Z,14.70
2019-05-19T21:05:31.119Z,14.70
2019-05-19T21:08:00.451Z,14.50
2019-05-19T21:10:29.942Z,14.50
2019-05-19T21:12:59.473Z,14.40
2019-05-19T21:15:28.880Z,14.50
2019-05-19T21:17:58.314Z,14.40
2019-05-19T21:20:27.638Z,14.40
2019-05-19T21:22:57.008Z,14.40
2019-05-19T21:25:26.378Z,14.30
2019-05-19T21:27:55.709Z,14.30
2019-05-19T21:30:25.070Z,14.30
2019-05-19T21:32:54.491Z,14.20
2019-05-19T21:35:23.827Z,14.30
2019-05-19T21:37:53.147Z,14.20
2019-05-19T21:40:22.488Z,14.10
2019-05-19T21:42:51.822Z,14.10
2019-05-19T21:45:21.229Z,14.10
2019-05-19T21:47:50.556Z,14.10
2019-05-19T21:50:20.103Z,14.00
2019-05-19T21:52:49.547Z,14.00
2019-05-19T21:55:18.986Z,14.00
2019-05-19T21:57:48.390Z,14.00
2019-05-19T22:00:18.056Z,13.90
2019-05-19T22:02:47.423Z,13.90
2019-05-19T22:05:16.791Z,13.90
2019-05-19T22:08:03.414Z,13.80
2019-05-19T22:10:33.030Z,13.90
2019-05-19T22:13:02.435Z,13.80
2019-05-19T22:15:31.806Z,13.70
2019-05-19T22:18:01.142Z,13.70
2019-05-19T22:20:30.656Z,13.70
2019-05-19T22:23:00.023Z,13.60
2019-05-19T22:25:29.354Z,13.50
2019-05-19T22:27:58.717Z,13.50
2019-05-19T22:30:28.043Z,13.40
2019-05-19T22:32:57.396Z,13.40
2019-05-19T22:35:26.723Z,13.40
2019-05-19T22:37:56.090Z,13.40
2019-05-19T22:40:25.485Z,13.30
2019-05-19T22:42:54.828Z,13.30
2019-05-19T22:45:24.152Z,13.30
2019-05-19T22:47:53.567Z,13.20
2019-05-19T22:50:22.975Z,13.20
2019-05-19T22:52:52.999Z,13.20
2019-05-19T22:55:22.325Z,13.10
2019-05-19T22:57:51.707Z,13.10
2019-05-19T23:00:21.750Z,13.10
2019-05-19T23:02:52.247Z,13.10
2019-05-19T23:05:21.583Z,13.10
2019-05-19T23:07:50.917Z,13.00
2019-05-19T23:10:20.575Z,12.90
2019-05-19T23:12:49.900Z,13.00
2019-05-19T23:15:19.654Z,12.90
2019-05-19T23:17:48.981Z,12.90
2019-05-19T23:20:18.485Z,12.90
2019-05-19T23:22:47.980Z,12.90
2019-05-19T23:25:17.418Z,12.90
2019-05-19T23:27:46.761Z,12.90
2019-05-19T23:30:16.266Z,12.90
2019-05-19T23:32:45.695Z,12.80
2019-05-19T23:35:15.133Z,12.80
2019-05-19T23:37:44.510Z,12.70
2019-05-19T23:40:14.355Z,12.70
2019-05-19T23:42:43.851Z,12.80
2019-05-19T23:45:13.978Z,12.80
2019-05-19T23:47:43.402Z,12.70
2019-05-19T23:50:13.443Z,12.70
2019-05-19T23:52:43.071Z,12.60
2019-05-19T23:55:13.638Z,12.60
